This is the latest recevied weather packets stored in our database for station/object WW3TRG. If no packets are shown the sender has not sent any weather packets the latest 10 day(s).
| Time | Temp. | Humidity | Pressure | Rain* | Wind** | Luminosity | Snow |
|---|---|---|---|---|---|---|---|
| 1777899038 | 12.78° C | 63% | 1013 hPa | 0 mm | - | 306 W/m² | - |
| 1777898734 | 12.22° C | 65% | 1013 hPa | 0 mm | - | 267 W/m² | - |
| 1777898432 | 11.67° C | 68% | 1013.4 hPa | 0 mm | - | 267 W/m² | - |
| 1777898129 | 10.56° C | 71% | 1013.2 hPa | 0 mm | - | 105 W/m² | - |
| 1777897826 | 10° C | 76% | 1013.3 hPa | 0 mm | - | 193 W/m² | - |
| 1777897522 | 9.44° C | 77% | 1013.3 hPa | 0 mm | - | 153 W/m² | - |
| 1777897217 | 9.44° C | 77% | 1013.4 hPa | 0 mm | - | 158 W/m² | - |
| 1777896914 | 8.89° C | 79% | 1013.4 hPa | 0 mm | - | 191 W/m² | - |
| 1777896611 | 8.89° C | 78% | 1013 hPa | 0 mm | - | 100 W/m² | - |
| 1777896308 | 8.89° C | 77% | 1013.4 hPa | 0 mm | - | 124 W/m² | - |
| 1777896006 | 8.89° C | 77% | 1013.3 hPa | 0 mm | - | 146 W/m² | - |
| 1777895704 | 8.89° C | 77% | 1013.4 hPa | 0 mm | - | 135 W/m² | - |
| 1777895400 | 7.22° C | 82% | 1013.3 hPa | 0 mm | - | 98 W/m² | - |
| 1777895098 | 6.67° C | 83% | 1013.3 hPa | 0 mm | - | 103 W/m² | - |
| 1777894795 | 6.67° C | 89% | 1013.2 hPa | 0 mm | - | 87 W/m² | - |
| 1777894492 | 5.56° C | 96% | 1012.9 hPa | 0 mm | - | 81 W/m² | - |
| 1777894189 | 4.44° C | 99% | 1013.4 hPa | 0 mm | - | 79 W/m² | - |
| 1777893886 | 3.33° C | 99% | 1013.3 hPa | 0 mm | - | 61 W/m² | - |
| 1777893582 | 3.33° C | 99% | 1013.1 hPa | 0 mm | - | 40 W/m² | - |
| 1777893279 | 2.22° C | 99% | 1013.3 hPa | 0 mm | - | 43 W/m² | - |
| 1777892975 | 1.67° C | 99% | 1013.1 hPa | 0 mm | - | 28 W/m² | - |
| 1777892672 | 1.67° C | 99% | 1013.3 hPa | 0 mm | - | 27 W/m² | - |
| 1777892368 | 1.11° C | 99% | 1013.3 hPa | 0 mm | - | 24 W/m² | - |
| 1777892064 | 1.11° C | 99% | 1013 hPa | 0 mm | - | 22 W/m² | - |
| 1777891762 | 1.11° C | 99% | 1013.3 hPa | 0 mm | - | 20 W/m² | - |
* Rain latest hour (hover to see other rain measurements)
** Current wind speed in m/s (hover to see current wind gust speed)